Time;durP1;ratioP1;P1;durP2;ratioP2;P2;SDS_P1;SDS_P2;PMS_P1;PMS_P2;Temp;Humidity;BMP_temperature;BMP_pressure;BME280_temperature;BME280_humidity;BME280_pressure;Samples;Min_cycle;Max_cycle;Signal;HPM_P1;HPM_P2
2024/03/21 00:00:13;;;;;;;53.47;30.85;;;11.90;67.60;;;13.64;50.80;97844.25;4951700;28;20031;-41
2024/03/21 00:02:46;;;;;;;14.87;10.40;;;12.00;67.30;;;13.68;50.67;97845.56;4951198;29;20051;-41
2024/03/21 00:05:17;;;;;;;13.65;8.43;;;12.10;67.00;;;13.73;50.52;97845.03;4943317;29;20440;-41
2024/03/21 00:07:47;;;;;;;8.70;6.50;;;12.20;66.30;;;13.76;50.56;97836.66;4951772;29;20039;-41
2024/03/21 00:10:20;;;;;;;8.27;6.05;;;12.20;66.30;;;13.79;50.47;97837.13;4936044;29;20065;-41
2024/03/21 00:12:48;;;;;;;4.45;4.05;;;12.20;66.00;;;13.83;50.27;97839.47;4951030;28;20051;-41
2024/03/21 00:15:16;;;;;;;4.22;3.20;;;12.30;65.60;;;13.86;50.12;97836.41;4951786;29;20047;-41
2024/03/21 00:17:45;;;;;;;2.83;2.47;;;12.30;65.60;;;13.86;50.22;97839.09;4935050;29;20503;-41
2024/03/21 00:20:12;;;;;;;5.43;2.78;;;12.30;65.70;;;13.86;50.07;97833.75;4951472;28;20529;-41
2024/03/21 00:22:43;;;;;;;4.05;3.65;;;12.30;65.50;;;13.87;50.23;97830.91;4953192;28;20063;-41
2024/03/21 00:25:10;;;;;;;3.88;3.00;;;12.40;65.50;;;13.87;50.31;97825.53;4955269;29;20035;-41
2024/03/21 00:27:39;;;;;;;4.43;2.65;;;12.40;65.30;;;13.85;50.50;97830.25;4954942;28;20525;-41
2024/03/21 00:30:07;;;;;;;5.28;3.00;;;12.40;65.10;;;13.88;49.94;97821.03;4931550;28;20054;-41
2024/03/21 00:32:34;;;;;;;4.13;3.08;;;12.50;65.00;;;13.89;49.89;97823.53;4954895;29;20066;-41
2024/03/21 00:35:01;;;;;;;3.50;2.33;;;12.50;64.90;;;13.90;49.84;97825.19;4954582;29;20503;-41
2024/03/21 00:37:28;;;;;;;4.75;2.65;;;12.50;64.50;;;13.92;49.80;97822.31;4954906;29;20364;-41
2024/03/21 00:39:55;;;;;;;7.30;2.50;;;12.50;64.40;;;13.94;49.62;97821.16;4954849;29;20055;-41
2024/03/21 00:42:22;;;;;;;3.67;2.78;;;12.50;64.10;;;13.97;49.56;97819.97;4954520;29;20035;-41
2024/03/21 00:44:49;;;;;;;3.80;2.40;;;12.50;64.10;;;14.00;49.43;97819.63;4954955;29;20059;-41
2024/03/21 00:47:16;;;;;;;4.05;2.65;;;12.60;63.70;;;14.02;49.45;97812.22;4954883;28;20035;-41
2024/03/21 00:49:42;;;;;;;3.40;2.90;;;12.60;63.40;;;14.07;49.34;97819.72;4953290;28;20051;-41
2024/03/21 00:52:10;;;;;;;3.80;2.20;;;12.70;63.00;;;14.08;49.22;97813.38;4953150;28;20063;-41
2024/03/21 00:54:37;;;;;;;3.55;2.38;;;12.70;62.80;;;14.11;49.09;97821.88;4954685;28;20078;-41
2024/03/21 00:57:04;;;;;;;4.55;2.17;;;12.80;62.40;;;14.15;48.94;97825.84;4954572;28;20051;-41
2024/03/21 00:59:31;;;;;;;4.18;2.70;;;12.90;62.20;;;14.16;49.00;97815.97;4954492;28;20414;-41
2024/03/21 01:01:58;;;;;;;3.10;2.35;;;12.80;62.00;;;14.18;48.90;97819.28;4954152;29;20044;-41
2024/03/21 01:04:25;;;;;;;4.55;2.60;;;12.90;61.90;;;14.18;48.79;97817.44;4938654;29;20062;-41
2024/03/21 01:06:51;;;;;;;3.75;1.83;;;12.90;61.70;;;14.20;48.75;97821.81;4954212;29;20063;-41
2024/03/21 01:09:19;;;;;;;5.47;2.40;;;12.90;61.90;;;14.19;48.84;97820.97;4954407;29;20426;-41
2024/03/21 01:11:46;;;;;;;5.20;2.88;;;12.90;61.80;;;14.18;48.74;97828.16;4953872;29;20399;-41
2024/03/21 01:14:13;;;;;;;3.15;2.33;;;12.90;61.90;;;14.16;48.86;97821.31;4938422;29;20184;-41
2024/03/21 01:16:39;;;;;;;3.20;2.50;;;12.80;61.70;;;14.12;48.83;97810.13;4954187;29;20062;-41
2024/03/21 01:19:06;;;;;;;3.80;2.58;;;12.80;61.80;;;14.08;48.77;97810.69;4954224;29;20046;-41
2024/03/21 01:21:32;;;;;;;3.00;2.53;;;12.80;62.00;;;14.05;48.92;97814.53;4953913;29;20525;-41
2024/03/21 01:23:59;;;;;;;3.65;2.60;;;12.80;61.90;;;14.02;48.86;97809.56;4954040;28;20051;-41
2024/03/21 01:26:26;;;;;;;4.57;2.75;;;12.70;62.10;;;14.00;48.86;97811.59;4954016;28;20036;-41
2024/03/21 01:28:53;;;;;;;3.95;2.60;;;12.70;62.10;;;13.98;49.04;97811.75;4953704;28;20051;-41
2024/03/21 01:31:21;;;;;;;4.13;2.40;;;12.70;62.20;;;13.98;48.89;97803.72;4953555;28;20051;-41
2024/03/21 01:33:49;;;;;;;3.95;2.58;;;12.70;62.10;;;13.99;48.94;97808.06;4953333;28;20047;-41
2024/03/21 01:36:16;;;;;;;3.08;2.15;;;12.70;62.00;;;13.98;48.86;97805.56;4954095;28;20046;-41
2024/03/21 01:38:44;;;;;;;4.78;2.10;;;12.70;62.00;;;14.00;48.80;97808.91;4953817;28;20059;-41
2024/03/21 01:41:11;;;;;;;3.47;2.08;;;12.70;61.80;;;14.04;48.87;97798.69;4945272;28;20039;-41
2024/03/21 01:43:40;;;;;;;2.85;2.00;;;12.80;61.80;;;14.06;48.77;97794.81;4953824;28;20054;-41
2024/03/21 01:46:09;;;;;;;3.22;1.95;;;12.80;61.90;;;14.10;48.67;97793.44;4938008;29;20211;-41
2024/03/21 01:48:38;;;;;;;2.75;2.20;;;12.90;61.80;;;14.14;48.74;97796.56;4953996;29;20047;-41
2024/03/21 01:51:06;;;;;;;2.75;2.30;;;12.80;61.80;;;14.17;48.79;97796.19;4953088;28;20054;-41
2024/03/21 01:53:33;;;;;;;2.55;1.85;;;12.90;61.90;;;14.20;48.75;97798.53;4937536;29;20517;-41
2024/03/21 01:56:00;;;;;;;4.03;2.00;;;12.90;61.70;;;14.22;48.59;97801.03;4952753;28;20055;-41
2024/03/21 01:58:26;;;;;;;4.10;2.33;;;12.90;61.90;;;14.21;48.75;97792.19;4953593;29;20035;-41
2024/03/21 02:00:54;;;;;;;2.85;2.05;;;12.90;62.00;;;14.21;48.48;97794.00;4953083;28;20039;-41
2024/03/21 02:03:21;;;;;;;3.97;1.90;;;12.90;61.70;;;14.20;48.70;97795.84;4953369;29;20268;-41
2024/03/21 02:05:48;;;;;;;3.00;2.15;;;12.90;61.80;;;14.23;48.75;97794.66;4953346;28;20490;-41
2024/03/21 02:08:15;;;;;;;3.63;2.15;;;12.90;61.70;;;14.27;48.50;97796.81;4953451;29;20039;-41
2024/03/21 02:10:41;;;;;;;2.85;2.20;;;13.00;61.50;;;14.27;48.43;97796.81;4952733;29;20070;-41
2024/03/21 02:13:09;;;;;;;4.03;2.40;;;13.00;61.20;;;14.27;48.56;97795.94;4953080;29;20055;-41
2024/03/21 02:15:36;;;;;;;4.57;2.42;;;13.10;61.30;;;14.28;48.64;97797.63;4953187;29;20430;-41
2024/03/21 02:18:03;;;;;;;3.45;2.63;;;13.10;61.30;;;14.28;48.49;97802.97;4952896;29;20549;-41
2024/03/21 02:20:31;;;;;;;5.93;2.25;;;13.00;61.40;;;14.27;48.62;97796.81;4937050;29;20238;-41
2024/03/21 02:22:58;;;;;;;3.58;2.28;;;13.00;61.60;;;14.26;48.63;97797.81;4952949;29;20043;-41
2024/03/21 02:25:25;;;;;;;3.55;2.60;;;13.00;61.70;;;14.27;48.77;97809.34;4953007;29;20116;-41
2024/03/21 02:27:51;;;;;;;2.78;2.10;;;13.00;61.90;;;14.27;48.76;97809.34;4952935;28;20047;-41
2024/03/21 02:30:18;;;;;;;3.35;1.90;;;13.00;61.70;;;14.28;49.03;97805.66;4952790;29;20043;-39
2024/03/21 02:32:44;;;;;;;2.50;2.28;;;13.00;62.30;;;14.29;48.70;97807.34;4936266;29;20533;-39
2024/03/21 02:35:11;;;;;;;2.88;2.22;;;12.90;62.30;;;14.22;48.80;97803.72;4952747;29;20047;-39
2024/03/21 02:37:38;;;;;;;3.97;2.80;;;12.90;62.50;;;14.27;48.87;97806.66;4936981;29;20047;-39
2024/03/21 02:40:05;;;;;;;3.03;2.33;;;12.90;62.60;;;14.25;48.81;97814.91;4952533;29;20411;-39
2024/03/21 02:42:32;;;;;;;3.97;2.53;;;12.80;62.90;;;14.29;48.80;97813.53;4952159;29;20058;-39
2024/03/21 02:44:58;;;;;;;3.72;2.65;;;12.80;63.00;;;14.32;48.93;97817.66;4951823;28;20043;-40
2024/03/21 02:47:25;;;;;;;2.70;2.17;;;12.80;63.30;;;14.32;49.06;97818.50;4952657;29;20039;-39
2024/03/21 02:49:53;;;;;;;3.05;2.30;;;12.80;63.20;;;14.29;49.13;97826.91;4952461;29;20047;-40
2024/03/21 02:52:19;;;;;;;4.40;2.50;;;12.80;63.70;;;14.32;49.23;97823.03;4952091;29;20039;-40
2024/03/21 02:54:46;;;;;;;3.42;2.95;;;12.70;64.00;;;14.34;49.13;97821.00;4952337;29;20055;-39
2024/03/21 02:57:13;;;;;;;2.65;2.30;;;12.80;64.00;;;14.33;49.13;97822.84;4952592;28;20054;-39
2024/03/21 02:59:39;;;;;;;4.00;2.55;;;12.70;64.20;;;14.31;48.94;97829.41;4952532;28;20053;-40
2024/03/21 03:02:06;;;;;;;4.13;2.65;;;12.70;64.30;;;14.28;48.99;97825.22;4951930;28;20050;-40
2024/03/21 03:04:33;;;;;;;4.20;2.50;;;12.60;64.80;;;14.23;49.14;97833.00;4952422;29;20047;-41
2024/03/21 03:06:59;;;;;;;5.28;2.25;;;12.50;65.10;;;14.24;49.31;97831.97;4952303;29;20058;-39
2024/03/21 03:09:26;;;;;;;2.65;2.33;;;12.50;65.60;;;14.25;49.56;97838.13;4952020;28;20047;-40
2024/03/21 03:11:53;;;;;;;3.92;2.67;;;12.50;65.80;;;14.24;49.48;97840.00;4951355;28;20051;-40
2024/03/21 03:14:19;;;;;;;3.60;2.58;;;12.50;66.10;;;14.13;49.72;97833.22;4928678;29;20047;-39
2024/03/21 03:16:46;;;;;;;3.78;2.55;;;12.30;66.50;;;14.13;49.67;97843.94;4952142;28;20047;-40
2024/03/21 03:19:13;;;;;;;3.13;2.50;;;12.30;66.80;;;14.13;49.78;97845.75;4952107;29;20047;-39
2024/03/21 03:21:39;;;;;;;3.80;2.45;;;12.30;66.50;;;14.09;49.78;97839.94;4951721;29;20055;-40
2024/03/21 03:24:06;;;;;;;4.75;2.47;;;12.30;67.60;;;14.10;49.90;97849.66;4951764;28;20039;-40
2024/03/21 03:26:33;;;;;;;3.40;2.58;;;12.30;67.00;;;14.08;50.13;97846.31;4951949;29;20051;-39
2024/03/21 03:28:59;;;;;;;3.90;2.58;;;12.30;67.30;;;14.06;50.09;97859.03;4951871;28;20055;-39
2024/03/21 03:31:26;;;;;;;3.08;2.50;;;12.30;67.20;;;14.00;50.16;97851.72;4951508;28;20043;-40
2024/03/21 03:36:38;;;;;;;3.80;3.00;;;12.20;67.90;;;13.90;50.61;97862.66;4945935;29;20051;-40
2024/03/21 03:39:05;;;;;;;5.18;3.20;;;12.10;68.20;;;13.90;50.63;97851.97;4951662;28;20055;-40
2024/03/21 03:41:31;;;;;;;6.70;3.10;;;12.10;68.30;;;13.90;50.68;97859.13;4935206;29;20040;-40
2024/03/21 03:43:58;;;;;;;5.90;3.25;;;12.10;68.30;;;13.90;50.58;97851.09;4951506;28;20054;-40
2024/03/21 03:46:25;;;;;;;6.82;2.85;;;12.10;68.30;;;13.88;50.82;97854.00;4951397;28;20043;-40
2024/03/21 03:48:51;;;;;;;2.53;2.33;;;12.10;68.60;;;13.88;50.79;97861.16;4951600;28;20051;-40
2024/03/21 03:51:18;;;;;;;4.22;2.90;;;12.10;68.70;;;13.86;50.95;97861.38;4949777;29;20054;-40
2024/03/21 03:53:45;;;;;;;5.20;2.95;;;12.10;68.80;;;13.86;51.12;97858.69;4934272;29;20058;-40
2024/03/21 03:56:12;;;;;;;3.70;2.35;;;12.10;69.10;;;13.86;51.04;97858.69;4937264;28;20553;-40
2024/03/21 03:58:38;;;;;;;4.68;2.63;;;12.10;69.00;;;13.87;51.18;97856.84;4955641;29;20502;-40
2024/03/21 04:01:05;;;;;;;3.20;2.45;;;12.10;69.10;;;13.88;51.18;97853.13;4954984;28;20054;-40
2024/03/21 04:03:32;;;;;;;4.70;2.50;;;12.10;69.10;;;13.88;51.31;97853.13;4955542;29;20119;-40
2024/03/21 04:06:01;;;;;;;3.65;2.78;;;12.20;69.10;;;13.90;51.30;97862.66;4955686;29;20051;-40
2024/03/21 04:08:28;;;;;;;3.05;2.42;;;12.20;69.40;;;13.89;51.17;97863.66;4948103;28;20039;-40
2024/03/21 04:10:56;;;;;;;5.00;2.40;;;12.10;69.50;;;13.89;51.40;97866.34;4955199;29;20054;-40
2024/03/21 04:13:24;;;;;;;3.28;2.47;;;12.10;69.60;;;13.89;51.46;97870.88;4955421;29;20043;-40
2024/03/21 04:15:55;;;;;;;3.45;2.55;;;12.10;69.80;;;13.87;51.53;97863.00;4955503;28;20510;-40
2024/03/21 04:18:23;;;;;;;3.47;2.30;;;12.10;70.00;;;13.87;51.63;97859.50;4954259;29;20047;-40
2024/03/21 04:20:53;;;;;;;3.85;2.65;;;12.10;70.30;;;13.85;51.77;97857.00;4954820;28;20047;-40
2024/03/21 04:23:20;;;;;;;4.40;2.77;;;12.00;70.50;;;13.85;51.94;97861.53;4954988;29;20054;-40
2024/03/21 04:25:47;;;;;;;3.42;2.67;;;12.00;70.60;;;13.83;51.84;97861.69;4955241;29;20276;-40
2024/03/21 04:28:13;;;;;;;4.55;2.58;;;12.00;70.80;;;13.82;52.20;97862.69;4955167;28;20062;-40
2024/03/21 04:30:40;;;;;;;4.18;3.08;;;12.00;71.00;;;13.81;52.25;97862.91;4954848;28;20043;-40
2024/03/21 04:33:07;;;;;;;2.85;1.95;;;12.00;71.60;;;13.78;52.19;97866.75;4954682;29;20058;-40
2024/03/21 04:35:33;;;;;;;4.63;2.67;;;12.00;71.50;;;13.73;52.26;97880.66;4955133;29;20047;-40
2024/03/21 04:38:00;;;;;;;3.33;2.70;;;11.90;72.10;;;13.72;52.36;97886.19;4955059;29;20051;-40
2024/03/21 04:40:27;;;;;;;5.03;2.63;;;11.90;72.30;;;13.71;52.42;97887.19;4954776;29;20043;-40
2024/03/21 04:42:54;;;;;;;4.47;3.63;;;11.80;71.90;;;13.67;52.48;97870.66;4954573;29;20414;-40
2024/03/21 04:45:22;;;;;;;5.40;2.97;;;11.80;72.00;;;13.65;52.52;97879.84;4954560;29;20050;-40
2024/03/21 04:47:49;;;;;;;4.20;2.43;;;11.90;72.80;;;13.61;52.72;97882.06;4938737;29;20139;-40
2024/03/21 04:50:16;;;;;;;4.38;2.50;;;11.70;73.10;;;13.62;52.99;97883.72;4954915;28;20043;-40
2024/03/21 04:52:42;;;;;;;4.68;3.40;;;11.80;73.50;;;13.60;52.93;97888.41;4954513;28;20430;-40
2024/03/21 04:55:10;;;;;;;6.07;2.90;;;11.70;73.60;;;13.62;53.16;97891.75;4953847;29;20039;-40
2024/03/21 04:57:38;;;;;;;5.28;2.65;;;11.80;73.60;;;13.61;52.93;97898.13;4954406;29;20054;-40
2024/03/21 05:00:10;;;;;;;7.40;3.10;;;11.80;73.40;;;13.61;53.08;97892.75;4954585;28;20070;-40
2024/03/21 05:02:37;;;;;;;3.67;2.93;;;11.80;73.20;;;13.61;52.99;97889.22;4954201;28;20108;-40
2024/03/21 05:05:04;;;;;;;4.33;2.90;;;11.80;73.20;;;13.59;53.40;97887.59;4954172;28;20055;-40
2024/03/21 05:07:32;;;;;;;5.20;3.15;;;11.80;73.50;;;13.57;53.35;97888.75;4953721;28;20530;-40
2024/03/21 05:09:59;;;;;;;3.58;2.90;;;11.70;73.90;;;13.55;53.22;97880.91;4938631;28;20565;-40
2024/03/21 05:12:27;;;;;;;5.45;3.22;;;11.70;74.00;;;13.53;53.47;97888.28;4953924;28;20058;-40
2024/03/21 05:14:54;;;;;;;5.32;3.28;;;11.70;74.20;;;13.52;53.50;97883.94;4954545;28;20581;-40
2024/03/21 05:17:21;;;;;;;4.77;2.97;;;11.70;74.00;;;13.51;53.47;97887.63;4954212;28;20039;-40
2024/03/21 05:19:47;;;;;;;4.50;2.80;;;11.70;74.00;;;13.48;53.42;97892.50;4938122;29;20396;-40
2024/03/21 05:22:16;;;;;;;4.40;3.88;;;11.60;74.30;;;13.45;53.75;97882.13;4937938;29;20040;-40
2024/03/21 05:24:43;;;;;;;6.60;3.47;;;11.60;75.00;;;13.44;53.84;97885.81;4954164;28;20054;-40
2024/03/21 05:27:14;;;;;;;3.73;2.80;;;11.60;74.90;;;13.41;53.85;97888.81;4953767;29;20419;-40
2024/03/21 05:29:43;;;;;;;4.30;3.17;;;11.60;75.00;;;13.39;53.89;97889.81;4954235;29;20047;-40
2024/03/21 05:32:09;;;;;;;6.60;3.28;;;11.50;75.30;;;13.38;54.03;97888.16;4953370;29;20047;-40
2024/03/21 05:34:36;;;;;;;6.63;3.10;;;11.50;75.30;;;13.39;54.03;97892.50;4953608;29;20099;-40
2024/03/21 05:37:03;;;;;;;3.70;3.40;;;11.60;75.20;;;13.41;54.16;97886.16;4954065;29;20050;-40
2024/03/21 05:39:30;;;;;;;5.40;3.20;;;11.60;75.10;;;13.40;53.89;97877.31;4953573;29;20054;-40
2024/03/21 05:41:56;;;;;;;5.20;3.47;;;11.60;74.70;;;13.41;54.02;97880.81;4953390;29;20484;-40
2024/03/21 05:44:23;;;;;;;3.30;3.00;;;11.60;74.60;;;13.40;54.04;97882.66;4953822;29;20042;-40
2024/03/21 05:46:52;;;;;;;6.10;3.10;;;11.60;74.60;;;13.39;54.12;97881.81;4953900;28;20414;-40
2024/03/21 05:49:19;;;;;;;3.40;3.00;;;11.60;74.90;;;13.42;54.04;97885.16;4953666;28;20050;-40
2024/03/21 05:51:48;;;;;;;5.03;3.20;;;11.70;74.90;;;13.42;54.28;97885.16;4953239;29;20047;-40
2024/03/21 05:54:15;;;;;;;4.50;2.97;;;11.60;75.20;;;13.41;54.40;97888.81;4953390;28;20064;-40
2024/03/21 05:56:41;;;;;;;4.43;3.53;;;11.60;75.50;;;13.38;54.48;97900.72;4953759;28;20070;-40
2024/03/21 05:59:08;;;;;;;7.90;3.53;;;11.50;76.10;;;13.39;54.58;97899.69;4953787;29;20119;-40
2024/03/21 06:01:35;;;;;;;9.10;3.13;;;11.60;76.10;;;13.41;54.60;97903.03;4937193;29;20051;-40
2024/03/21 06:04:02;;;;;;;3.93;3.13;;;11.70;76.20;;;13.44;54.73;97908.03;4953451;29;20494;-40
2024/03/21 06:06:28;;;;;;;3.50;3.13;;;11.70;76.00;;;13.44;54.63;97902.69;4953412;29;20058;-42
2024/03/21 06:08:56;;;;;;;5.40;3.23;;;11.60;75.80;;;13.44;54.72;97915.25;4953500;28;20051;-40
2024/03/21 06:11:23;;;;;;;5.60;3.60;;;11.60;76.00;;;13.45;54.64;97914.22;4951978;28;20047;-40
2024/03/21 06:13:52;;;;;;;4.18;3.30;;;11.60;76.10;;;13.44;54.73;97915.25;4953356;28;20073;-44
2024/03/21 06:16:19;;;;;;;4.10;3.43;;;11.60;76.20;;;13.46;54.78;97915.91;4952796;28;20058;-41
2024/03/21 06:18:46;;;;;;;7.33;3.70;;;11.60;76.60;;;13.47;55.06;97921.03;4953212;28;20043;-40
2024/03/21 06:21:12;;;;;;;5.57;3.33;;;11.70;76.80;;;13.50;54.83;97925.25;4952652;28;20051;-41
2024/03/21 06:23:39;;;;;;;5.87;3.77;;;11.70;76.70;;;13.50;54.97;97934.09;4953023;28;20047;-41
2024/03/21 06:26:06;;;;;;;6.00;4.13;;;11.70;76.90;;;13.54;54.96;97932.72;4952618;29;20054;-41
2024/03/21 06:28:32;;;;;;;10.27;5.75;;;11.80;76.70;;;13.59;55.02;97937.59;4952960;29;20058;-41
2024/03/21 06:30:59;;;;;;;7.77;5.23;;;11.90;76.40;;;13.65;55.01;97942.22;4952486;29;20062;-40
2024/03/21 06:33:26;;;;;;;20.20;9.88;;;11.90;75.90;;;13.70;54.97;97947.06;4952850;29;20515;-40
2024/03/21 06:35:52;;;;;;;16.37;7.83;;;12.00;76.10;;;13.75;55.00;97958.09;4952872;29;20498;-40
2024/03/21 06:38:19;;;;;;;14.32;6.70;;;12.00;76.00;;;13.78;55.35;97958.56;4952509;29;20062;-40
2024/03/21 06:40:46;;;;;;;14.02;6.50;;;12.10;76.10;;;13.85;55.19;97960.53;4952147;29;20044;-39
2024/03/21 06:43:13;;;;;;;9.32;6.25;;;12.10;76.20;;;13.88;55.22;97963.72;4952667;29;20051;-39
2024/03/21 06:45:40;;;;;;;10.07;6.00;;;12.20;76.10;;;13.96;55.10;97970.88;4944745;28;20498;-39
2024/03/21 06:48:07;;;;;;;7.47;4.47;;;12.30;75.60;;;13.98;54.63;97968.84;4952449;28;20043;-40
2024/03/21 06:50:33;;;;;;;5.75;4.35;;;12.30;74.80;;;14.03;54.68;97971.00;4952384;29;20047;-40
2024/03/21 06:53:00;;;;;;;4.38;3.55;;;12.40;74.40;;;14.06;54.34;97978.69;4933148;29;20418;-40
2024/03/21 06:55:27;;;;;;;7.28;3.78;;;12.50;73.90;;;14.08;54.21;97980.16;4936299;29;20047;-40
2024/03/21 06:57:58;;;;;;;5.03;3.30;;;12.40;73.60;;;14.12;53.92;97980.66;4936054;29;20083;-40
2024/03/21 07:00:26;;;;;;;5.43;2.88;;;12.50;73.00;;;14.15;53.98;97993.66;4952337;29;20494;-40
2024/03/21 07:02:55;;;;;;;4.07;3.42;;;12.50;72.70;;;14.16;54.12;97990.00;4950995;29;20043;-40
2024/03/21 07:05:24;;;;;;;5.88;3.88;;;12.50;72.80;;;14.21;54.01;97994.81;4951774;28;20510;-40
2024/03/21 07:07:52;;;;;;;7.28;3.50;;;12.60;72.90;;;14.25;53.85;97996.13;4952103;28;20050;-40
2024/03/21 07:10:22;;;;;;;7.18;4.75;;;12.60;72.30;;;14.26;54.14;97998.63;4951847;29;20051;-39
2024/03/21 07:12:49;;;;;;;5.03;3.53;;;12.70;72.60;;;14.28;54.15;97996.63;4935926;28;20046;-40
2024/03/21 07:15:16;;;;;;;6.97;3.78;;;12.60;72.50;;;14.29;53.81;97994.78;4952187;28;20039;-40
2024/03/21 07:17:43;;;;;;;4.40;3.13;;;12.70;72.10;;;14.31;53.51;98004.31;4944388;29;20099;-40
2024/03/21 07:20:13;;;;;;;5.70;3.80;;;12.70;71.50;;;14.35;53.71;98005.63;4951882;29;20403;-40
2024/03/21 07:22:40;;;;;;;6.97;4.00;;;12.80;71.60;;;14.38;53.67;98004.44;4951252;28;20035;-39
2024/03/21 07:25:07;;;;;;;5.78;4.00;;;12.70;72.00;;;14.41;53.77;97997.91;4951683;29;20112;-39
2024/03/21 07:27:34;;;;;;;7.90;4.18;;;12.80;72.50;;;14.45;53.88;97996.53;4936099;29;20058;-39
2024/03/21 07:30:07;;;;;;;5.63;4.18;;;12.80;72.60;;;14.48;53.89;97993.47;4951760;28;20039;-39
2024/03/21 07:32:38;;;;;;;4.75;3.35;;;12.90;73.10;;;14.54;53.81;97988.25;4951345;29;20046;-40
2024/03/21 07:35:05;;;;;;;5.53;3.63;;;13.00;72.80;;;14.59;54.04;97995.78;4952012;29;20039;-40
2024/03/21 07:37:32;;;;;;;4.68;3.50;;;13.00;72.80;;;14.60;53.73;98002.81;4951764;29;20419;-39
2024/03/21 07:40:03;;;;;;;4.88;2.97;;;13.00;72.00;;;14.58;53.80;98015.56;4951717;29;20055;-39
2024/03/21 07:42:30;;;;;;;4.80;3.00;;;13.00;72.40;;;14.48;53.86;98015.78;4936054;29;20043;-41
2024/03/21 07:44:57;;;;;;;4.22;3.10;;;12.90;72.90;;;14.43;54.36;98018.13;4951592;28;20603;-42
2024/03/21 07:47:23;;;;;;;4.45;2.83;;;12.90;73.30;;;14.50;54.37;98015.56;4951141;28;20446;-42
2024/03/21 07:49:51;;;;;;;3.83;3.00;;;13.00;73.20;;;14.55;54.31;98021.25;4950268;29;20040;-41
2024/03/21 07:52:18;;;;;;;3.22;2.30;;;13.10;73.00;;;14.55;54.58;98022.06;4950717;29;20051;-41
2024/03/21 07:54:45;;;;;;;4.18;3.25;;;13.20;73.30;;;14.58;54.95;98020.94;4951468;29;20058;-41
2024/03/21 07:57:11;;;;;;;4.38;2.90;;;13.20;73.40;;;14.65;54.90;98021.03;4950929;28;20055;-42
2024/03/21 07:59:38;;;;;;;4.43;3.30;;;13.30;74.00;;;14.72;55.02;98013.97;4951590;29;20058;-41
2024/03/21 08:02:05;;;;;;;6.40;3.47;;;13.40;74.00;;;14.81;55.31;98012.91;4951347;29;20433;-42
2024/03/21 08:04:33;;;;;;;5.78;3.08;;;13.50;74.00;;;14.89;55.30;98028.09;4951456;29;20451;-42
2024/03/21 08:07:00;;;;;;;4.55;3.63;;;13.60;74.30;;;14.81;56.04;98030.81;4935631;29;20415;-42
2024/03/21 08:09:27;;;;;;;4.45;3.90;;;13.70;75.10;;;14.92;55.85;98033.91;4951421;29;20050;-42
2024/03/21 08:11:54;;;;;;;8.02;3.85;;;13.70;75.60;;;14.90;56.20;98035.09;4951125;28;20399;-43
2024/03/21 08:14:21;;;;;;;5.97;3.90;;;13.70;75.60;;;14.98;56.13;98044.94;4935785;29;20054;-43
2024/03/21 08:16:48;;;;;;;11.10;4.15;;;13.70;75.60;;;14.98;56.01;98036.88;4951451;29;20500;-43
2024/03/21 08:19:14;;;;;;;4.13;3.63;;;13.70;75.80;;;14.99;56.24;98033.19;4935406;29;20428;-44
2024/03/21 08:21:41;;;;;;;7.15;3.88;;;13.70;75.70;;;15.01;55.95;98040.03;4950980;29;20615;-43
2024/03/21 08:24:07;;;;;;;5.22;3.63;;;13.70;75.90;;;15.04;55.97;98045.03;4951455;29;20411;-41
2024/03/21 08:26:34;;;;;;;4.85;3.53;;;13.70;76.20;;;14.85;56.81;98056.22;4951254;29;20118;-41
2024/03/21 08:29:01;;;;;;;4.95;4.03;;;13.70;76.30;;;14.93;56.26;98058.88;4951063;29;20051;-42
2024/03/21 08:31:27;;;;;;;5.18;3.58;;;13.70;76.10;;;14.89;56.66;98066.44;4950728;29;20487;-41
2024/03/21 08:33:54;;;;;;;5.30;3.63;;;13.60;76.40;;;14.84;56.95;98068.81;4951388;29;20039;-50
2024/03/21 08:36:21;;;;;;;5.95;3.72;;;13.60;76.80;;;14.96;56.58;98074.59;4951026;29;20043;-42
2024/03/21 08:38:47;;;;;;;6.22;4.13;;;13.70;76.80;;;14.93;56.82;98077.66;4951191;29;20050;-43
2024/03/21 08:41:14;;;;;;;6.85;5.28;;;13.70;76.30;;;14.96;56.95;98085.31;4950712;29;20047;-43
2024/03/21 08:43:41;;;;;;;5.53;5.03;;;13.70;76.60;;;14.97;57.23;98081.63;4953278;28;20400;-41
2024/03/21 08:46:07;;;;;;;6.35;4.28;;;13.70;76.90;;;15.16;56.92;98081.16;4954938;29;20039;-41
2024/03/21 08:48:34;;;;;;;5.57;4.32;;;13.90;76.70;;;15.30;56.56;98092.13;4954732;29;20043;-42
2024/03/21 08:51:01;;;;;;;4.35;3.50;;;14.10;75.80;;;15.44;56.38;98093.16;4954363;28;20055;-42
2024/03/21 08:53:27;;;;;;;5.85;4.00;;;14.30;75.60;;;15.49;56.58;98096.13;4954551;28;20048;-43
2024/03/21 08:55:54;;;;;;;6.28;3.88;;;14.40;75.10;;;15.58;56.48;98099.56;4954598;28;20364;-43
2024/03/21 08:58:21;;;;;;;5.47;4.30;;;14.50;74.80;;;15.57;56.04;98093.38;4954471;28;20051;-43
2024/03/21 09:00:47;;;;;;;7.68;4.45;;;14.50;73.70;;;15.62;55.97;98082.91;4954169;28;20039;-44
2024/03/21 09:03:14;;;;;;;6.10;4.28;;;14.50;73.90;;;15.61;55.72;98093.84;4954450;29;20054;-43
2024/03/21 09:05:40;;;;;;;5.85;4.95;;;14.50;73.70;;;15.51;55.46;98103.00;4954439;28;20056;-44
2024/03/21 09:08:08;;;;;;;6.38;4.50;;;14.40;72.70;;;15.51;54.81;98091.44;4954429;29;20042;-42
2024/03/21 09:10:35;;;;;;;6.47;4.55;;;14.30;71.10;;;15.36;55.20;98094.06;4953913;29;20062;-43
2024/03/21 09:13:02;;;;;;;10.13;4.47;;;14.30;72.40;;;15.40;54.77;98095.38;4938092;29;20054;-39
2024/03/21 09:15:29;;;;;;;20.48;12.95;;;14.20;71.90;;;15.41;55.16;98096.19;4954132;29;20047;-44
2024/03/21 09:17:55;;;;;;;9.07;6.03;;;14.30;72.50;;;15.44;54.86;98101.22;4954209;29;20051;-43
2024/03/21 09:20:23;;;;;;;6.85;4.95;;;14.30;71.70;;;15.42;55.12;98098.69;4954391;29;20426;-42
2024/03/21 09:22:50;;;;;;;7.18;4.75;;;14.40;71.80;;;15.41;54.74;98083.63;4952925;29;20446;-42
2024/03/21 09:25:17;;;;;;;12.05;4.55;;;14.40;71.00;;;15.34;55.06;98096.91;4953609;28;20063;-43
2024/03/21 09:27:43;;;;;;;8.85;5.05;;;14.40;71.30;;;15.43;55.06;98096.84;4953758;29;20042;-42
2024/03/21 09:30:11;;;;;;;11.55;5.05;;;14.40;71.10;;;15.51;55.04;98113.72;4938063;29;20410;-43
2024/03/21 09:32:38;;;;;;;6.32;5.22;;;14.50;71.60;;;15.61;54.42;98110.78;4953537;28;20051;-39
2024/03/21 09:35:06;;;;;;;6.03;4.28;;;14.50;70.00;;;15.70;54.06;98117.75;4937972;29;20043;-40
2024/03/21 09:37:33;;;;;;;7.28;5.70;;;14.60;69.80;;;15.73;53.37;98114.72;4938118;29;20062;-41
2024/03/21 09:40:00;;;;;;;9.20;6.20;;;14.70;68.30;;;15.74;53.37;98131.66;4953704;29;20055;-41
2024/03/21 09:42:27;;;;;;;9.23;6.63;;;14.70;68.70;;;15.80;53.15;98128.25;4937526;29;20106;-41
2024/03/21 09:44:56;;;;;;;7.63;6.55;;;14.70;69.20;;;15.80;53.28;98135.44;4946150;29;20043;-41
2024/03/21 09:47:27;;;;;;;10.60;7.20;;;14.80;68.30;;;15.79;53.18;98126.56;4953873;29;20051;-41
2024/03/21 09:49:54;;;;;;;10.32;6.60;;;14.70;68.40;;;15.74;53.37;98132.50;4946044;29;20043;-45
2024/03/21 09:52:21;;;;;;;9.00;6.70;;;14.70;68.70;;;15.82;53.21;98139.66;4953170;29;20047;-42
2024/03/21 09:54:48;;;;;;;8.27;7.20;;;14.70;68.60;;;15.79;53.08;98145.38;4917962;28;20059;-42
2024/03/21 09:57:15;;;;;;;11.30;6.60;;;14.70;68.70;;;15.79;53.18;98142.69;4953864;28;20103;-42
2024/03/21 09:59:42;;;;;;;8.85;6.38;;;14.70;68.50;;;15.89;53.09;98150.47;4953677;29;20503;-42
2024/03/21 10:02:13;;;;;;;9.98;6.35;;;14.70;69.60;;;15.93;53.62;98157.97;4952979;29;20043;-42
2024/03/21 10:04:44;;;;;;;10.30;7.43;;;14.80;69.50;;;15.97;52.63;98158.44;4953381;29;20521;-42
2024/03/21 10:07:20;;;;;;;10.82;7.63;;;14.90;68.00;;;16.02;53.11;98158.72;4953525;29;20395;-42
2024/03/21 10:09:58;;;;;;;13.20;7.82;;;14.90;68.50;;;16.03;53.10;98147.00;4953268;28;20047;-44
2024/03/21 10:12:26;;;;;;;8.18;6.30;;;15.00;67.90;;;16.03;52.99;98151.50;4952957;29;20050;-42
2024/03/21 10:14:56;;;;;;;10.80;5.65;;;15.00;68.20;;;16.10;53.18;98147.06;4953108;29;20047;-40
2024/03/21 10:17:26;;;;;;;8.95;5.63;;;15.00;68.60;;;16.03;53.03;98160.41;4952375;28;20043;-41
2024/03/21 10:19:53;;;;;;;7.00;5.40;;;15.00;67.60;;;16.13;53.18;98142.16;4936552;29;20047;-41